sensor_id;sensor_type;location;lat;lon;timestamp;temperature;humidity
21244;DHT22;10780;50.942;4.028;2023-04-25T00:00:26;10.10;99.90
21244;DHT22;10780;50.942;4.028;2023-04-25T00:02:52;10.00;99.90
21244;DHT22;10780;50.942;4.028;2023-04-25T00:05:17;10.00;99.90
21244;DHT22;10780;50.942;4.028;2023-04-25T00:07:43;10.00;99.90
21244;DHT22;10780;50.942;4.028;2023-04-25T00:10:09;10.00;99.90
21244;DHT22;10780;50.942;4.028;2023-04-25T00:12:36;10.10;99.90
21244;DHT22;10780;50.942;4.028;2023-04-25T00:15:03;10.30;99.90
21244;DHT22;10780;50.942;4.028;2023-04-25T00:17:29;10.40;99.90
21244;DHT22;10780;50.942;4.028;2023-04-25T00:19:54;10.00;99.90
21244;DHT22;10780;50.942;4.028;2023-04-25T00:22:21;9.90;99.90
21244;DHT22;10780;50.942;4.028;2023-04-25T00:24:47;9.60;99.90
21244;DHT22;10780;50.942;4.028;2023-04-25T00:27:12;9.70;99.90
21244;DHT22;10780;50.942;4.028;2023-04-25T00:29:38;9.80;99.90
21244;DHT22;10780;50.942;4.028;2023-04-25T00:32:04;9.70;99.90
21244;DHT22;10780;50.942;4.028;2023-04-25T00:34:29;9.70;99.90
21244;DHT22;10780;50.942;4.028;2023-04-25T00:36:55;9.70;99.90
21244;DHT22;10780;50.942;4.028;2023-04-25T00:39:21;9.60;99.90
21244;DHT22;10780;50.942;4.028;2023-04-25T00:41:46;9.70;99.90
21244;DHT22;10780;50.942;4.028;2023-04-25T00:44:12;9.50;99.90
21244;DHT22;10780;50.942;4.028;2023-04-25T00:46:39;9.50;99.90
21244;DHT22;10780;50.942;4.028;2023-04-25T00:49:05;9.60;99.90
21244;DHT22;10780;50.942;4.028;2023-04-25T00:51:31;9.70;99.90
21244;DHT22;10780;50.942;4.028;2023-04-25T00:53:58;9.80;99.90
21244;DHT22;10780;50.942;4.028;2023-04-25T00:56:24;9.70;99.90
21244;DHT22;10780;50.942;4.028;2023-04-25T00:58:53;9.40;99.90
21244;DHT22;10780;50.942;4.028;2023-04-25T01:01:22;9.30;99.90
21244;DHT22;10780;50.942;4.028;2023-04-25T01:03:47;9.40;99.90
21244;DHT22;10780;50.942;4.028;2023-04-25T01:06:16;9.40;99.90
21244;DHT22;10780;50.942;4.028;2023-04-25T01:08:41;9.40;99.90
21244;DHT22;10780;50.942;4.028;2023-04-25T01:11:07;9.40;99.90
21244;DHT22;10780;50.942;4.028;2023-04-25T01:13:33;9.30;99.90
21244;DHT22;10780;50.942;4.028;2023-04-25T01:15:59;9.20;99.90
21244;DHT22;10780;50.942;4.028;2023-04-25T01:18:25;9.20;99.90
21244;DHT22;10780;50.942;4.028;2023-04-25T01:20:52;9.30;99.90
21244;DHT22;10780;50.942;4.028;2023-04-25T01:23:19;9.10;99.90
21244;DHT22;10780;50.942;4.028;2023-04-25T01:25:45;9.10;99.90
21244;DHT22;10780;50.942;4.028;2023-04-25T01:28:12;9.10;99.90
21244;DHT22;10780;50.942;4.028;2023-04-25T01:30:38;9.20;99.90
21244;DHT22;10780;50.942;4.028;2023-04-25T01:33:05;9.10;99.90
21244;DHT22;10780;50.942;4.028;2023-04-25T01:35:31;9.00;99.90
21244;DHT22;10780;50.942;4.028;2023-04-25T01:37:57;8.80;99.90
21244;DHT22;10780;50.942;4.028;2023-04-25T01:40:24;8.90;99.90
21244;DHT22;10780;50.942;4.028;2023-04-25T01:42:50;8.90;99.90
21244;DHT22;10780;50.942;4.028;2023-04-25T01:45:17;8.80;99.90
21244;DHT22;10780;50.942;4.028;2023-04-25T01:47:43;8.80;99.90
21244;DHT22;10780;50.942;4.028;2023-04-25T01:50:12;8.70;99.90
21244;DHT22;10780;50.942;4.028;2023-04-25T01:52:38;8.90;99.90
21244;DHT22;10780;50.942;4.028;2023-04-25T01:55:04;9.00;99.90
21244;DHT22;10780;50.942;4.028;2023-04-25T01:57:29;9.00;99.90
21244;DHT22;10780;50.942;4.028;2023-04-25T01:59:59;9.00;99.90
21244;DHT22;10780;50.942;4.028;2023-04-25T02:02:25;9.00;99.90
21244;DHT22;10780;50.942;4.028;2023-04-25T02:04:51;9.10;99.90
21244;DHT22;10780;50.942;4.028;2023-04-25T02:07:17;9.10;99.90
21244;DHT22;10780;50.942;4.028;2023-04-25T02:09:43;9.00;99.90
21244;DHT22;10780;50.942;4.028;2023-04-25T02:12:09;9.00;99.90
21244;DHT22;10780;50.942;4.028;2023-04-25T02:14:35;8.90;99.90
21244;DHT22;10780;50.942;4.028;2023-04-25T02:17:01;8.90;99.90
21244;DHT22;10780;50.942;4.028;2023-04-25T02:19:26;8.90;99.90
21244;DHT22;10780;50.942;4.028;2023-04-25T02:21:52;8.70;99.90
21244;DHT22;10780;50.942;4.028;2023-04-25T02:24:18;8.80;99.90
21244;DHT22;10780;50.942;4.028;2023-04-25T02:26:43;8.70;99.90
21244;DHT22;10780;50.942;4.028;2023-04-25T02:29:09;8.70;99.90
21244;DHT22;10780;50.942;4.028;2023-04-25T02:31:35;8.60;99.90
21244;DHT22;10780;50.942;4.028;2023-04-25T02:34:01;8.60;99.90
21244;DHT22;10780;50.942;4.028;2023-04-25T02:36:27;8.60;99.90
21244;DHT22;10780;50.942;4.028;2023-04-25T02:38:53;8.50;99.90
21244;DHT22;10780;50.942;4.028;2023-04-25T02:41:18;8.30;99.90
21244;DHT22;10780;50.942;4.028;2023-04-25T02:43:44;8.30;99.90
21244;DHT22;10780;50.942;4.028;2023-04-25T02:46:09;8.10;99.90
21244;DHT22;10780;50.942;4.028;2023-04-25T02:48:35;8.10;99.90
21244;DHT22;10780;50.942;4.028;2023-04-25T02:51:01;8.00;99.90
21244;DHT22;10780;50.942;4.028;2023-04-25T02:53:26;7.90;99.90
21244;DHT22;10780;50.942;4.028;2023-04-25T02:55:52;7.70;99.90
21244;DHT22;10780;50.942;4.028;2023-04-25T02:58:18;7.70;99.90
21244;DHT22;10780;50.942;4.028;2023-04-25T03:00:44;7.70;99.90
21244;DHT22;10780;50.942;4.028;2023-04-25T03:03:10;7.60;99.90
21244;DHT22;10780;50.942;4.028;2023-04-25T03:05:36;7.60;99.90
21244;DHT22;10780;50.942;4.028;2023-04-25T03:08:01;7.70;99.90
21244;DHT22;10780;50.942;4.028;2023-04-25T03:10:27;7.70;99.90
21244;DHT22;10780;50.942;4.028;2023-04-25T03:12:53;7.70;99.90
21244;DHT22;10780;50.942;4.028;2023-04-25T03:15:18;7.70;99.90
21244;DHT22;10780;50.942;4.028;2023-04-25T03:17:44;7.60;99.90
21244;DHT22;10780;50.942;4.028;2023-04-25T03:20:10;7.60;99.90
21244;DHT22;10780;50.942;4.028;2023-04-25T03:22:36;7.60;99.90
21244;DHT22;10780;50.942;4.028;2023-04-25T03:25:02;7.60;99.90
21244;DHT22;10780;50.942;4.028;2023-04-25T03:27:28;7.60;99.90
21244;DHT22;10780;50.942;4.028;2023-04-25T03:29:53;7.60;99.90
21244;DHT22;10780;50.942;4.028;2023-04-25T03:32:19;7.70;99.90
21244;DHT22;10780;50.942;4.028;2023-04-25T03:34:45;7.70;99.90
21244;DHT22;10780;50.942;4.028;2023-04-25T03:37:10;7.60;99.90
21244;DHT22;10780;50.942;4.028;2023-04-25T03:39:36;7.70;99.90
21244;DHT22;10780;50.942;4.028;2023-04-25T03:42:03;7.70;99.90
21244;DHT22;10780;50.942;4.028;2023-04-25T03:44:28;7.70;99.90
21244;DHT22;10780;50.942;4.028;2023-04-25T03:46:54;7.70;99.90
21244;DHT22;10780;50.942;4.028;2023-04-25T03:49:19;7.70;99.90
21244;DHT22;10780;50.942;4.028;2023-04-25T03:51:45;7.70;99.90
21244;DHT22;10780;50.942;4.028;2023-04-25T03:54:11;7.70;99.90
21244;DHT22;10780;50.942;4.028;2023-04-25T03:56:36;7.70;99.90
21244;DHT22;10780;50.942;4.028;2023-04-25T03:59:02;7.60;99.90
21244;DHT22;10780;50.942;4.028;2023-04-25T04:01:27;7.70;99.90
21244;DHT22;10780;50.942;4.028;2023-04-25T04:03:53;7.70;99.90
21244;DHT22;10780;50.942;4.028;2023-04-25T04:06:19;7.70;99.90
21244;DHT22;10780;50.942;4.028;2023-04-25T04:08:46;7.70;99.90
21244;DHT22;10780;50.942;4.028;2023-04-25T04:11:11;7.70;99.90
21244;DHT22;10780;50.942;4.028;2023-04-25T04:13:37;7.70;99.90
21244;DHT22;10780;50.942;4.028;2023-04-25T04:16:03;7.70;99.90
21244;DHT22;10780;50.942;4.028;2023-04-25T04:18:29;7.70;99.90
21244;DHT22;10780;50.942;4.028;2023-04-25T04:20:55;7.70;99.90
21244;DHT22;10780;50.942;4.028;2023-04-25T04:23:23;7.70;99.90
21244;DHT22;10780;50.942;4.028;2023-04-25T04:25:49;7.70;99.90
21244;DHT22;10780;50.942;4.028;2023-04-25T04:28:14;7.60;99.90
21244;DHT22;10780;50.942;4.028;2023-04-25T04:30:41;7.70;99.90
21244;DHT22;10780;50.942;4.028;2023-04-25T04:33:08;7.80;99.90
21244;DHT22;10780;50.942;4.028;2023-04-25T04:35:34;7.90;99.90
21244;DHT22;10780;50.942;4.028;2023-04-25T04:38:00;8.00;99.90
21244;DHT22;10780;50.942;4.028;2023-04-25T04:40:25;8.00;99.90
21244;DHT22;10780;50.942;4.028;2023-04-25T04:42:51;8.00;99.90
21244;DHT22;10780;50.942;4.028;2023-04-25T04:45:18;8.00;99.90
21244;DHT22;10780;50.942;4.028;2023-04-25T04:47:44;8.00;99.90
21244;DHT22;10780;50.942;4.028;2023-04-25T04:50:10;8.10;99.90
21244;DHT22;10780;50.942;4.028;2023-04-25T04:52:36;8.00;99.90
21244;DHT22;10780;50.942;4.028;2023-04-25T04:55:04;8.00;99.90
21244;DHT22;10780;50.942;4.028;2023-04-25T04:57:31;7.90;99.90
21244;DHT22;10780;50.942;4.028;2023-04-25T04:59:58;7.90;99.90
21244;DHT22;10780;50.942;4.028;2023-04-25T05:02:24;7.80;99.90
21244;DHT22;10780;50.942;4.028;2023-04-25T05:04:50;7.90;99.90
21244;DHT22;10780;50.942;4.028;2023-04-25T05:07:17;8.10;99.90
21244;DHT22;10780;50.942;4.028;2023-04-25T05:09:43;8.20;99.90
21244;DHT22;10780;50.942;4.028;2023-04-25T05:12:09;8.30;99.90
21244;DHT22;10780;50.942;4.028;2023-04-25T05:14:34;8.30;99.90
21244;DHT22;10780;50.942;4.028;2023-04-25T05:17:00;8.10;99.90
21244;DHT22;10780;50.942;4.028;2023-04-25T05:19:26;8.10;99.90
21244;DHT22;10780;50.942;4.028;2023-04-25T05:21:52;8.10;99.90
21244;DHT22;10780;50.942;4.028;2023-04-25T05:24:17;8.10;99.90
21244;DHT22;10780;50.942;4.028;2023-04-25T05:26:43;8.10;99.90
21244;DHT22;10780;50.942;4.028;2023-04-25T05:29:09;8.10;99.90
21244;DHT22;10780;50.942;4.028;2023-04-25T05:31:36;8.10;99.90
21244;DHT22;10780;50.942;4.028;2023-04-25T05:34:02;8.30;99.90
21244;DHT22;10780;50.942;4.028;2023-04-25T05:36:27;8.10;99.90
21244;DHT22;10780;50.942;4.028;2023-04-25T05:38:53;8.10;99.90
21244;DHT22;10780;50.942;4.028;2023-04-25T05:41:19;8.10;99.90
21244;DHT22;10780;50.942;4.028;2023-04-25T05:43:45;8.10;99.90
21244;DHT22;10780;50.942;4.028;2023-04-25T05:46:12;8.00;99.90
21244;DHT22;10780;50.942;4.028;2023-04-25T05:48:39;8.00;99.90
21244;DHT22;10780;50.942;4.028;2023-04-25T05:51:04;8.00;99.90
21244;DHT22;10780;50.942;4.028;2023-04-25T05:53:30;8.00;99.90
21244;DHT22;10780;50.942;4.028;2023-04-25T05:55:56;8.00;99.90
21244;DHT22;10780;50.942;4.028;2023-04-25T05:58:21;8.20;99.90
21244;DHT22;10780;50.942;4.028;2023-04-25T06:00:47;8.40;99.90
21244;DHT22;10780;50.942;4.028;2023-04-25T06:03:13;8.50;99.90
21244;DHT22;10780;50.942;4.028;2023-04-25T06:05:43;8.50;99.90
21244;DHT22;10780;50.942;4.028;2023-04-25T06:08:09;8.70;99.90
21244;DHT22;10780;50.942;4.028;2023-04-25T06:10:36;8.60;99.90
21244;DHT22;10780;50.942;4.028;2023-04-25T06:13:02;8.70;99.90
21244;DHT22;10780;50.942;4.028;2023-04-25T06:15:28;8.90;99.90
21244;DHT22;10780;50.942;4.028;2023-04-25T06:17:53;9.10;99.90
21244;DHT22;10780;50.942;4.028;2023-04-25T06:20:19;9.20;99.90
21244;DHT22;10780;50.942;4.028;2023-04-25T06:22:49;9.30;99.90
21244;DHT22;10780;50.942;4.028;2023-04-25T06:25:16;9.20;99.90
21244;DHT22;10780;50.942;4.028;2023-04-25T06:27:43;9.10;99.90
21244;DHT22;10780;50.942;4.028;2023-04-25T06:30:11;9.00;99.90
21244;DHT22;10780;50.942;4.028;2023-04-25T06:32:39;8.80;99.90
21244;DHT22;10780;50.942;4.028;2023-04-25T06:35:05;8.80;99.90
21244;DHT22;10780;50.942;4.028;2023-04-25T06:37:31;9.00;99.90
21244;DHT22;10780;50.942;4.028;2023-04-25T06:39:57;9.20;99.90
21244;DHT22;10780;50.942;4.028;2023-04-25T06:42:24;9.20;99.90
21244;DHT22;10780;50.942;4.028;2023-04-25T06:44:51;9.00;99.90
21244;DHT22;10780;50.942;4.028;2023-04-25T06:47:17;8.90;99.90
21244;DHT22;10780;50.942;4.028;2023-04-25T06:49:45;9.00;99.90
21244;DHT22;10780;50.942;4.028;2023-04-25T06:52:11;9.20;99.90
21244;DHT22;10780;50.942;4.028;2023-04-25T06:54:37;9.30;99.90
21244;DHT22;10780;50.942;4.028;2023-04-25T06:57:02;9.20;99.90
21244;DHT22;10780;50.942;4.028;2023-04-25T06:59:28;8.80;99.90
21244;DHT22;10780;50.942;4.028;2023-04-25T07:01:54;8.80;99.90
21244;DHT22;10780;50.942;4.028;2023-04-25T07:04:19;8.90;99.90
21244;DHT22;10780;50.942;4.028;2023-04-25T07:06:45;9.20;99.90
21244;DHT22;10780;50.942;4.028;2023-04-25T07:09:12;9.50;99.90
21244;DHT22;10780;50.942;4.028;2023-04-25T07:11:38;9.50;99.90
21244;DHT22;10780;50.942;4.028;2023-04-25T07:14:04;9.60;99.90
21244;DHT22;10780;50.942;4.028;2023-04-25T07:16:29;9.50;99.90
21244;DHT22;10780;50.942;4.028;2023-04-25T07:18:55;9.70;99.90
21244;DHT22;10780;50.942;4.028;2023-04-25T07:21:21;9.70;99.90
21244;DHT22;10780;50.942;4.028;2023-04-25T07:23:47;10.00;99.90
21244;DHT22;10780;50.942;4.028;2023-04-25T07:26:12;10.00;99.90
21244;DHT22;10780;50.942;4.028;2023-04-25T07:28:38;9.90;99.90
21244;DHT22;10780;50.942;4.028;2023-04-25T07:31:04;10.00;99.90
21244;DHT22;10780;50.942;4.028;2023-04-25T07:33:30;9.90;99.90
21244;DHT22;10780;50.942;4.028;2023-04-25T07:35:56;10.00;99.90
21244;DHT22;10780;50.942;4.028;2023-04-25T07:38:22;10.10;99.90
21244;DHT22;10780;50.942;4.028;2023-04-25T07:40:48;9.80;99.90
21244;DHT22;10780;50.942;4.028;2023-04-25T07:43:14;9.60;99.90
21244;DHT22;10780;50.942;4.028;2023-04-25T07:45:43;9.50;99.90
21244;DHT22;10780;50.942;4.028;2023-04-25T07:48:09;9.40;99.90
21244;DHT22;10780;50.942;4.028;2023-04-25T07:50:35;9.60;99.90
21244;DHT22;10780;50.942;4.028;2023-04-25T07:53:01;9.90;99.90
21244;DHT22;10780;50.942;4.028;2023-04-25T07:55:26;9.90;99.90
21244;DHT22;10780;50.942;4.028;2023-04-25T07:57:52;9.80;99.90
21244;DHT22;10780;50.942;4.028;2023-04-25T08:00:18;9.80;99.90
21244;DHT22;10780;50.942;4.028;2023-04-25T08:02:43;9.80;99.90
21244;DHT22;10780;50.942;4.028;2023-04-25T08:05:10;9.60;99.90
21244;DHT22;10780;50.942;4.028;2023-04-25T08:07:40;9.60;99.90
21244;DHT22;10780;50.942;4.028;2023-04-25T08:10:07;10.00;99.90
21244;DHT22;10780;50.942;4.028;2023-04-25T08:12:33;10.00;99.90
21244;DHT22;10780;50.942;4.028;2023-04-25T08:14:59;10.20;99.90
21244;DHT22;10780;50.942;4.028;2023-04-25T08:17:25;10.30;99.90
21244;DHT22;10780;50.942;4.028;2023-04-25T08:19:55;10.00;99.90
21244;DHT22;10780;50.942;4.028;2023-04-25T08:22:22;10.00;99.90
21244;DHT22;10780;50.942;4.028;2023-04-25T08:24:48;9.90;99.90
21244;DHT22;10780;50.942;4.028;2023-04-25T08:27:18;9.90;99.90
21244;DHT22;10780;50.942;4.028;2023-04-25T08:29:44;9.80;99.90
21244;DHT22;10780;50.942;4.028;2023-04-25T08:32:10;9.90;99.90
21244;DHT22;10780;50.942;4.028;2023-04-25T08:34:35;10.10;99.90
21244;DHT22;10780;50.942;4.028;2023-04-25T08:37:03;10.50;99.90
21244;DHT22;10780;50.942;4.028;2023-04-25T08:39:29;10.50;99.90
21244;DHT22;10780;50.942;4.028;2023-04-25T08:41:56;10.70;99.90
21244;DHT22;10780;50.942;4.028;2023-04-25T08:44:22;10.40;99.90
21244;DHT22;10780;50.942;4.028;2023-04-25T08:46:49;10.30;99.90
21244;DHT22;10780;50.942;4.028;2023-04-25T08:49:17;10.10;99.90
21244;DHT22;10780;50.942;4.028;2023-04-25T08:51:46;10.00;99.90
21244;DHT22;10780;50.942;4.028;2023-04-25T08:54:14;9.70;99.90
21244;DHT22;10780;50.942;4.028;2023-04-25T08:56:47;9.70;99.90
21244;DHT22;10780;50.942;4.028;2023-04-25T08:59:13;10.00;99.90
21244;DHT22;10780;50.942;4.028;2023-04-25T09:01:39;10.50;99.90
21244;DHT22;10780;50.942;4.028;2023-04-25T09:04:06;10.90;99.90
21244;DHT22;10780;50.942;4.028;2023-04-25T09:06:32;11.40;99.90
21244;DHT22;10780;50.942;4.028;2023-04-25T09:09:08;11.20;99.90
21244;DHT22;10780;50.942;4.028;2023-04-25T09:11:36;11.00;99.90
21244;DHT22;10780;50.942;4.028;2023-04-25T09:19:24;10.70;99.90
21244;DHT22;10780;50.942;4.028;2023-04-25T09:21:50;10.70;99.90
21244;DHT22;10780;50.942;4.028;2023-04-25T09:24:18;10.80;99.90
21244;DHT22;10780;50.942;4.028;2023-04-25T09:26:44;11.20;99.90
21244;DHT22;10780;50.942;4.028;2023-04-25T09:29:10;11.40;99.90
21244;DHT22;10780;50.942;4.028;2023-04-25T09:31:36;11.30;99.90
21244;DHT22;10780;50.942;4.028;2023-04-25T09:34:02;11.20;99.90
21244;DHT22;10780;50.942;4.028;2023-04-25T09:36:29;11.30;99.90
21244;DHT22;10780;50.942;4.028;2023-04-25T09:38:55;11.80;99.90
21244;DHT22;10780;50.942;4.028;2023-04-25T09:41:24;12.10;99.90
21244;DHT22;10780;50.942;4.028;2023-04-25T09:43:50;12.60;99.90
21244;DHT22;10780;50.942;4.028;2023-04-25T09:46:16;12.80;99.90
21244;DHT22;10780;50.942;4.028;2023-04-25T09:48:50;12.50;99.90
21244;DHT22;10780;50.942;4.028;2023-04-25T09:51:16;12.70;99.90
21244;DHT22;10780;50.942;4.028;2023-04-25T09:53:44;12.20;99.90
21244;DHT22;10780;50.942;4.028;2023-04-25T09:56:12;12.20;99.90
21244;DHT22;10780;50.942;4.028;2023-04-25T09:58:39;11.70;99.90
21244;DHT22;10780;50.942;4.028;2023-04-25T10:01:07;11.30;99.90
21244;DHT22;10780;50.942;4.028;2023-04-25T10:03:35;11.20;99.90
21244;DHT22;10780;50.942;4.028;2023-04-25T10:06:03;11.00;99.90
21244;DHT22;10780;50.942;4.028;2023-04-25T10:08:32;10.30;99.90
21244;DHT22;10780;50.942;4.028;2023-04-25T10:11:05;9.50;99.90
21244;DHT22;10780;50.942;4.028;2023-04-25T10:13:33;8.90;99.90
21244;DHT22;10780;50.942;4.028;2023-04-25T10:16:00;8.70;99.90
21244;DHT22;10780;50.942;4.028;2023-04-25T10:18:27;8.90;99.90
21244;DHT22;10780;50.942;4.028;2023-04-25T10:20:55;9.10;99.90
21244;DHT22;10780;50.942;4.028;2023-04-25T10:23:21;9.30;99.90
21244;DHT22;10780;50.942;4.028;2023-04-25T10:25:53;9.70;99.90
21244;DHT22;10780;50.942;4.028;2023-04-25T10:28:19;9.70;99.90
21244;DHT22;10780;50.942;4.028;2023-04-25T10:31:02;9.50;99.90
21244;DHT22;10780;50.942;4.028;2023-04-25T10:33:35;9.30;99.90
21244;DHT22;10780;50.942;4.028;2023-04-25T10:36:22;9.50;99.90
21244;DHT22;10780;50.942;4.028;2023-04-25T10:38:49;9.90;99.90
21244;DHT22;10780;50.942;4.028;2023-04-25T10:41:21;9.80;99.90
21244;DHT22;10780;50.942;4.028;2023-04-25T10:43:49;10.00;99.90
21244;DHT22;10780;50.942;4.028;2023-04-25T10:46:24;10.00;99.90
21244;DHT22;10780;50.942;4.028;2023-04-25T10:54:01;10.40;99.90
21244;DHT22;10780;50.942;4.028;2023-04-25T11:01:36;10.40;99.90
21244;DHT22;10780;50.942;4.028;2023-04-25T11:04:02;10.70;99.90
21244;DHT22;10780;50.942;4.028;2023-04-25T11:09:02;10.50;99.90
21244;DHT22;10780;50.942;4.028;2023-04-25T11:11:29;10.50;99.90
21244;DHT22;10780;50.942;4.028;2023-04-25T11:13:55;10.80;99.90
21244;DHT22;10780;50.942;4.028;2023-04-25T11:16:24;11.00;99.90
21244;DHT22;10780;50.942;4.028;2023-04-25T11:18:50;11.00;99.90
21244;DHT22;10780;50.942;4.028;2023-04-25T11:21:16;10.90;99.90
21244;DHT22;10780;50.942;4.028;2023-04-25T11:23:45;11.00;99.90
21244;DHT22;10780;50.942;4.028;2023-04-25T11:26:13;10.70;99.90
21244;DHT22;10780;50.942;4.028;2023-04-25T11:28:39;10.60;99.90
21244;DHT22;10780;50.942;4.028;2023-04-25T11:31:04;10.80;99.90
21244;DHT22;10780;50.942;4.028;2023-04-25T11:33:30;10.70;99.90
21244;DHT22;10780;50.942;4.028;2023-04-25T11:35:56;10.80;99.90
21244;DHT22;10780;50.942;4.028;2023-04-25T11:38:23;11.20;99.90
21244;DHT22;10780;50.942;4.028;2023-04-25T11:40:53;11.50;99.90
21244;DHT22;10780;50.942;4.028;2023-04-25T11:43:22;11.60;99.90
21244;DHT22;10780;50.942;4.028;2023-04-25T11:45:49;11.60;99.90
21244;DHT22;10780;50.942;4.028;2023-04-25T11:48:16;11.50;99.90
21244;DHT22;10780;50.942;4.028;2023-04-25T11:50:42;11.60;99.90
21244;DHT22;10780;50.942;4.028;2023-04-25T11:53:07;11.90;99.90
21244;DHT22;10780;50.942;4.028;2023-04-25T11:55:34;11.80;99.90
21244;DHT22;10780;50.942;4.028;2023-04-25T11:58:01;12.10;99.90
21244;DHT22;10780;50.942;4.028;2023-04-25T12:00:28;12.50;99.90
21244;DHT22;10780;50.942;4.028;2023-04-25T12:02:54;12.70;99.90
21244;DHT22;10780;50.942;4.028;2023-04-25T12:05:24;12.80;99.90
21244;DHT22;10780;50.942;4.028;2023-04-25T12:07:49;12.40;99.90
21244;DHT22;10780;50.942;4.028;2023-04-25T12:10:17;12.40;99.90
21244;DHT22;10780;50.942;4.028;2023-04-25T12:12:45;12.60;99.90
21244;DHT22;10780;50.942;4.028;2023-04-25T12:17:40;13.20;99.90
21244;DHT22;10780;50.942;4.028;2023-04-25T12:20:10;13.30;99.90
21244;DHT22;10780;50.942;4.028;2023-04-25T12:22:37;13.00;99.90
21244;DHT22;10780;50.942;4.028;2023-04-25T12:25:04;12.60;99.90
21244;DHT22;10780;50.942;4.028;2023-04-25T12:27:31;12.50;99.90
21244;DHT22;10780;50.942;4.028;2023-04-25T12:29:57;12.40;99.90
21244;DHT22;10780;50.942;4.028;2023-04-25T12:32:24;12.50;99.90
21244;DHT22;10780;50.942;4.028;2023-04-25T12:34:50;12.50;99.90
21244;DHT22;10780;50.942;4.028;2023-04-25T12:37:16;12.10;99.90
21244;DHT22;10780;50.942;4.028;2023-04-25T12:39:42;11.80;99.90
21244;DHT22;10780;50.942;4.028;2023-04-25T12:42:08;11.60;99.90
21244;DHT22;10780;50.942;4.028;2023-04-25T12:44:38;11.60;99.90
21244;DHT22;10780;50.942;4.028;2023-04-25T12:47:04;11.60;99.90
21244;DHT22;10780;50.942;4.028;2023-04-25T12:49:31;11.50;99.90
21244;DHT22;10780;50.942;4.028;2023-04-25T12:51:57;11.60;99.90
21244;DHT22;10780;50.942;4.028;2023-04-25T12:54:23;11.50;99.90
21244;DHT22;10780;50.942;4.028;2023-04-25T12:56:50;12.00;99.90
21244;DHT22;10780;50.942;4.028;2023-04-25T12:59:16;12.80;99.90
21244;DHT22;10780;50.942;4.028;2023-04-25T13:01:42;13.10;99.90
21244;DHT22;10780;50.942;4.028;2023-04-25T13:04:08;12.80;99.90
21244;DHT22;10780;50.942;4.028;2023-04-25T13:06:33;12.60;99.90
21244;DHT22;10780;50.942;4.028;2023-04-25T13:08:59;12.20;99.90
21244;DHT22;10780;50.942;4.028;2023-04-25T13:11:25;12.00;99.90
21244;DHT22;10780;50.942;4.028;2023-04-25T13:13:51;12.20;99.90
21244;DHT22;10780;50.942;4.028;2023-04-25T13:16:17;12.50;99.90
21244;DHT22;10780;50.942;4.028;2023-04-25T13:18:42;12.60;99.90
21244;DHT22;10780;50.942;4.028;2023-04-25T13:21:09;12.80;99.90
21244;DHT22;10780;50.942;4.028;2023-04-25T13:23:37;12.90;99.90
21244;DHT22;10780;50.942;4.028;2023-04-25T13:26:02;13.00;99.90
21244;DHT22;10780;50.942;4.028;2023-04-25T13:28:28;13.00;99.90
21244;DHT22;10780;50.942;4.028;2023-04-25T13:30:54;13.00;99.90
21244;DHT22;10780;50.942;4.028;2023-04-25T13:33:20;13.00;99.90
21244;DHT22;10780;50.942;4.028;2023-04-25T13:35:47;12.90;99.90
21244;DHT22;10780;50.942;4.028;2023-04-25T13:38:23;12.60;99.90
21244;DHT22;10780;50.942;4.028;2023-04-25T13:40:49;12.70;99.90
21244;DHT22;10780;50.942;4.028;2023-04-25T13:43:18;12.50;99.90
21244;DHT22;10780;50.942;4.028;2023-04-25T13:45:44;12.60;99.90
21244;DHT22;10780;50.942;4.028;2023-04-25T13:48:10;12.30;99.90
21244;DHT22;10780;50.942;4.028;2023-04-25T13:50:36;12.80;99.90
21244;DHT22;10780;50.942;4.028;2023-04-25T13:53:01;12.80;99.90
21244;DHT22;10780;50.942;4.028;2023-04-25T13:55:27;12.70;99.90
21244;DHT22;10780;50.942;4.028;2023-04-25T13:57:53;12.60;99.90
21244;DHT22;10780;50.942;4.028;2023-04-25T14:00:18;12.70;99.90
21244;DHT22;10780;50.942;4.028;2023-04-25T14:02:45;12.60;99.90
21244;DHT22;10780;50.942;4.028;2023-04-25T14:05:11;12.40;99.90
21244;DHT22;10780;50.942;4.028;2023-04-25T14:07:36;12.40;99.90
21244;DHT22;10780;50.942;4.028;2023-04-25T14:10:03;12.20;99.90
21244;DHT22;10780;50.942;4.028;2023-04-25T14:12:30;12.50;99.90
21244;DHT22;10780;50.942;4.028;2023-04-25T14:14:56;12.60;99.90
21244;DHT22;10780;50.942;4.028;2023-04-25T14:17:21;12.60;99.90
21244;DHT22;10780;50.942;4.028;2023-04-25T14:19:47;12.80;99.90
21244;DHT22;10780;50.942;4.028;2023-04-25T14:22:14;13.00;99.90
21244;DHT22;10780;50.942;4.028;2023-04-25T14:24:41;13.10;99.90
21244;DHT22;10780;50.942;4.028;2023-04-25T14:27:07;12.90;99.90
21244;DHT22;10780;50.942;4.028;2023-04-25T14:29:32;13.00;99.90
21244;DHT22;10780;50.942;4.028;2023-04-25T14:31:58;13.40;99.90
21244;DHT22;10780;50.942;4.028;2023-04-25T14:34:24;14.20;99.90
21244;DHT22;10780;50.942;4.028;2023-04-25T14:36:51;14.20;99.90
21244;DHT22;10780;50.942;4.028;2023-04-25T14:39:17;14.20;99.90
21244;DHT22;10780;50.942;4.028;2023-04-25T14:41:43;13.50;99.90
21244;DHT22;10780;50.942;4.028;2023-04-25T14:44:09;13.20;99.90
21244;DHT22;10780;50.942;4.028;2023-04-25T14:46:35;13.30;99.90
21244;DHT22;10780;50.942;4.028;2023-04-25T14:49:01;14.00;99.90
21244;DHT22;10780;50.942;4.028;2023-04-25T14:51:27;14.30;99.90
21244;DHT22;10780;50.942;4.028;2023-04-25T14:53:53;14.50;99.90
21244;DHT22;10780;50.942;4.028;2023-04-25T14:56:19;14.00;99.90
21244;DHT22;10780;50.942;4.028;2023-04-25T14:58:44;13.50;99.90
21244;DHT22;10780;50.942;4.028;2023-04-25T15:01:11;12.90;99.90
21244;DHT22;10780;50.942;4.028;2023-04-25T15:03:38;12.30;99.90
21244;DHT22;10780;50.942;4.028;2023-04-25T15:06:04;12.20;99.90
21244;DHT22;10780;50.942;4.028;2023-04-25T15:08:31;11.90;99.90
21244;DHT22;10780;50.942;4.028;2023-04-25T15:10:57;12.10;99.90
21244;DHT22;10780;50.942;4.028;2023-04-25T15:13:23;12.10;99.90
21244;DHT22;10780;50.942;4.028;2023-04-25T15:15:48;11.70;99.90
21244;DHT22;10780;50.942;4.028;2023-04-25T15:18:17;11.70;99.90
21244;DHT22;10780;50.942;4.028;2023-04-25T15:20:44;11.50;99.90
21244;DHT22;10780;50.942;4.028;2023-04-25T15:23:09;11.40;99.90
21244;DHT22;10780;50.942;4.028;2023-04-25T15:25:35;11.40;99.90
21244;DHT22;10780;50.942;4.028;2023-04-25T15:28:00;11.60;99.90
21244;DHT22;10780;50.942;4.028;2023-04-25T15:30:26;11.60;99.90
21244;DHT22;10780;50.942;4.028;2023-04-25T15:32:52;11.70;99.90
21244;DHT22;10780;50.942;4.028;2023-04-25T15:35:17;12.80;99.90
21244;DHT22;10780;50.942;4.028;2023-04-25T15:37:43;13.60;99.90
21244;DHT22;10780;50.942;4.028;2023-04-25T15:40:14;13.60;99.90
21244;DHT22;10780;50.942;4.028;2023-04-25T15:42:48;13.10;99.90
21244;DHT22;10780;50.942;4.028;2023-04-25T15:45:17;13.20;99.90
21244;DHT22;10780;50.942;4.028;2023-04-25T15:47:44;13.60;99.90
21244;DHT22;10780;50.942;4.028;2023-04-25T15:50:10;13.20;99.90
21244;DHT22;10780;50.942;4.028;2023-04-25T15:52:37;13.00;99.90
21244;DHT22;10780;50.942;4.028;2023-04-25T15:55:04;12.60;99.90